sensor_id;sensor_type;location;lat;lon;timestamp;pressure;altitude;pressure_sealevel;temperature;humidity
78745;BME280;68064;53.100;8.824;2023-04-06T00:00:02;102088.06;;;0.70;64.95
78745;BME280;68064;53.100;8.824;2023-04-06T00:01:03;102084.50;;;0.68;64.57
78745;BME280;68064;53.100;8.824;2023-04-06T00:02:05;102081.06;;;0.67;64.30
78745;BME280;68064;53.100;8.824;2023-04-06T00:03:05;102085.97;;;0.66;64.47
78745;BME280;68064;53.100;8.824;2023-04-06T00:04:07;102081.34;;;0.62;64.37
78745;BME280;68064;53.100;8.824;2023-04-06T00:05:08;102080.63;;;0.63;64.27
78745;BME280;68064;53.100;8.824;2023-04-06T00:06:09;102082.97;;;0.61;64.17
78745;BME280;68064;53.100;8.824;2023-04-06T00:07:10;102082.84;;;0.60;65.10
78745;BME280;68064;53.100;8.824;2023-04-06T00:08:11;102081.63;;;0.56;64.50
78745;BME280;68064;53.100;8.824;2023-04-06T00:09:14;102078.22;;;0.56;64.65
78745;BME280;68064;53.100;8.824;2023-04-06T00:10:16;102083.09;;;0.54;64.97
78745;BME280;68064;53.100;8.824;2023-04-06T00:11:17;102083.25;;;0.56;64.39
78745;BME280;68064;53.100;8.824;2023-04-06T00:12:18;102079.69;;;0.53;65.16
78745;BME280;68064;53.100;8.824;2023-04-06T00:13:19;102077.00;;;0.52;64.34
78745;BME280;68064;53.100;8.824;2023-04-06T00:14:22;102078.06;;;0.54;64.59
78745;BME280;68064;53.100;8.824;2023-04-06T00:15:24;102074.16;;;0.49;64.80
78745;BME280;68064;53.100;8.824;2023-04-06T00:16:26;102073.88;;;0.46;64.68
78745;BME280;68064;53.100;8.824;2023-04-06T00:17:27;102073.72;;;0.44;64.96
78745;BME280;68064;53.100;8.824;2023-04-06T00:18:29;102075.47;;;0.45;65.35
78745;BME280;68064;53.100;8.824;2023-04-06T00:19:30;102069.09;;;0.40;64.68
78745;BME280;68064;53.100;8.824;2023-04-06T00:20:31;102075.03;;;0.41;65.04
78745;BME280;68064;53.100;8.824;2023-04-06T00:21:35;102073.06;;;0.38;64.41
78745;BME280;68064;53.100;8.824;2023-04-06T00:22:37;102073.66;;;0.36;64.75
78745;BME280;68064;53.100;8.824;2023-04-06T00:23:38;102075.28;;;0.35;65.05
78745;BME280;68064;53.100;8.824;2023-04-06T00:24:40;102074.22;;;0.33;65.00
78745;BME280;68064;53.100;8.824;2023-04-06T00:25:42;102078.38;;;0.33;64.61
78745;BME280;68064;53.100;8.824;2023-04-06T00:26:43;102073.03;;;0.30;65.26
78745;BME280;68064;53.100;8.824;2023-04-06T00:27:46;102063.53;;;0.27;64.74
78745;BME280;68064;53.100;8.824;2023-04-06T00:28:47;102068.41;;;0.26;64.75
78745;BME280;68064;53.100;8.824;2023-04-06T00:29:48;102072.72;;;0.27;64.58
78745;BME280;68064;53.100;8.824;2023-04-06T00:30:49;102074.31;;;0.26;65.51
78745;BME280;68064;53.100;8.824;2023-04-06T00:31:51;102068.84;;;0.22;65.47
78745;BME280;68064;53.100;8.824;2023-04-06T00:32:52;102070.47;;;0.21;65.22
78745;BME280;68064;53.100;8.824;2023-04-06T00:33:53;102064.34;;;0.19;65.51
78745;BME280;68064;53.100;8.824;2023-04-06T00:34:54;102064.03;;;0.16;65.01
78745;BME280;68064;53.100;8.824;2023-04-06T00:35:55;102057.66;;;0.11;65.17
78745;BME280;68064;53.100;8.824;2023-04-06T00:36:56;102065.53;;;0.14;65.74
78745;BME280;68064;53.100;8.824;2023-04-06T00:37:57;102054.81;;;0.08;65.60
78745;BME280;68064;53.100;8.824;2023-04-06T00:38:58;102060.00;;;0.10;65.48
78745;BME280;68064;53.100;8.824;2023-04-06T00:40:01;102054.81;;;0.08;65.30
78745;BME280;68064;53.100;8.824;2023-04-06T00:41:03;102056.03;;;0.12;64.93
78745;BME280;68064;53.100;8.824;2023-04-06T00:42:10;102059.84;;;0.08;65.39
78745;BME280;68064;53.100;8.824;2023-04-06T00:43:12;102057.16;;;0.07;65.52
78745;BME280;68064;53.100;8.824;2023-04-06T00:44:13;102052.72;;;0.04;65.22
78745;BME280;68064;53.100;8.824;2023-04-06T00:45:15;102053.47;;;0.03;65.53
78745;BME280;68064;53.100;8.824;2023-04-06T00:46:16;102054.19;;;0.02;65.35
78745;BME280;68064;53.100;8.824;2023-04-06T00:47:17;102054.19;;;0.02;65.67
78745;BME280;68064;53.100;8.824;2023-04-06T00:48:18;102056.38;;;-0.01;65.08
78745;BME280;68064;53.100;8.824;2023-04-06T00:49:20;102064.66;;;-0.02;65.18
78745;BME280;68064;53.100;8.824;2023-04-06T00:50:21;102061.25;;;-0.03;65.55
78745;BME280;68064;53.100;8.824;2023-04-06T00:51:22;102057.53;;;-0.06;65.73
78745;BME280;68064;53.100;8.824;2023-04-06T00:52:24;102055.75;;;-0.07;65.90
78745;BME280;68064;53.100;8.824;2023-04-06T00:53:25;102052.16;;;-0.09;65.74
78745;BME280;68064;53.100;8.824;2023-04-06T00:54:26;102061.38;;;-0.10;65.88
78745;BME280;68064;53.100;8.824;2023-04-06T00:55:29;102052.16;;;-0.09;65.47
78745;BME280;68064;53.100;8.824;2023-04-06T00:56:33;102051.84;;;-0.12;65.76
78745;BME280;68064;53.100;8.824;2023-04-06T00:57:35;102050.41;;;-0.10;65.81
78745;BME280;68064;53.100;8.824;2023-04-06T00:58:37;102047.56;;;-0.13;65.59
78745;BME280;68064;53.100;8.824;2023-04-06T00:59:38;102052.28;;;-0.16;65.81
78745;BME280;68064;53.100;8.824;2023-04-06T01:00:42;102055.53;;;-0.17;65.63
78745;BME280;68064;53.100;8.824;2023-04-06T01:01:44;102053.72;;;-0.18;66.03
78745;BME280;68064;53.100;8.824;2023-04-06T01:02:45;102053.72;;;-0.18;66.01
78745;BME280;68064;53.100;8.824;2023-04-06T01:03:46;102053.28;;;-0.23;66.52
78745;BME280;68064;53.100;8.824;2023-04-06T01:04:47;102053.09;;;-0.24;66.04
78745;BME280;68064;53.100;8.824;2023-04-06T01:05:48;102051.47;;;-0.24;66.47
78745;BME280;68064;53.100;8.824;2023-04-06T01:06:49;102051.31;;;-0.25;66.38
78745;BME280;68064;53.100;8.824;2023-04-06T01:07:51;102052.06;;;-0.26;66.04
78745;BME280;68064;53.100;8.824;2023-04-06T01:08:52;102051.88;;;-0.28;65.99
78745;BME280;68064;53.100;8.824;2023-04-06T01:09:53;102048.47;;;-0.28;66.36
78745;BME280;68064;53.100;8.824;2023-04-06T01:10:56;102048.91;;;-0.32;66.44
78745;BME280;68064;53.100;8.824;2023-04-06T01:11:57;102043.88;;;-0.32;66.38
78745;BME280;68064;53.100;8.824;2023-04-06T01:13:01;102043.56;;;-0.35;66.10
78745;BME280;68064;53.100;8.824;2023-04-06T01:14:03;102041.59;;;-0.38;66.40
78745;BME280;68064;53.100;8.824;2023-04-06T01:15:05;102043.22;;;-0.38;65.99
78745;BME280;68064;53.100;8.824;2023-04-06T01:16:07;102040.38;;;-0.41;66.58
78745;BME280;68064;53.100;8.824;2023-04-06T01:17:08;102036.22;;;-0.41;66.22
78745;BME280;68064;53.100;8.824;2023-04-06T01:18:10;102039.50;;;-0.42;66.84
78745;BME280;68064;53.100;8.824;2023-04-06T01:19:13;102037.69;;;-0.43;66.70
78745;BME280;68064;53.100;8.824;2023-04-06T01:20:15;102033.25;;;-0.45;66.68
78745;BME280;68064;53.100;8.824;2023-04-06T01:21:16;102036.47;;;-0.46;66.20
78745;BME280;68064;53.100;8.824;2023-04-06T01:22:18;102043.13;;;-0.47;66.43
78745;BME280;68064;53.100;8.824;2023-04-06T01:23:22;102042.09;;;-0.49;66.41
78745;BME280;68064;53.100;8.824;2023-04-06T01:24:23;102036.88;;;-0.50;66.44
78745;BME280;68064;53.100;8.824;2023-04-06T01:25:24;102038.50;;;-0.51;66.75
78745;BME280;68064;53.100;8.824;2023-04-06T01:26:25;102025.06;;;-0.51;66.69
78745;BME280;68064;53.100;8.824;2023-04-06T01:27:26;102030.25;;;-0.50;66.43
78745;BME280;68064;53.100;8.824;2023-04-06T01:28:28;102040.16;;;-0.51;66.93
78745;BME280;68064;53.100;8.824;2023-04-06T01:29:29;102036.41;;;-0.55;66.81
78745;BME280;68064;53.100;8.824;2023-04-06T01:30:30;102026.59;;;-0.61;67.76
78745;BME280;68064;53.100;8.824;2023-04-06T01:31:31;102034.81;;;-0.55;67.11
78745;BME280;68064;53.100;8.824;2023-04-06T01:32:32;102031.84;;;-0.50;66.50
78745;BME280;68064;53.100;8.824;2023-04-06T01:33:34;102029.28;;;-0.59;67.37
78745;BME280;68064;53.100;8.824;2023-04-06T01:34:36;102022.63;;;-0.59;66.78
78745;BME280;68064;53.100;8.824;2023-04-06T01:35:37;102020.84;;;-0.60;66.13
78745;BME280;68064;53.100;8.824;2023-04-06T01:36:39;102030.56;;;-0.63;66.65
78745;BME280;68064;53.100;8.824;2023-04-06T01:37:41;102027.16;;;-0.63;67.25
78745;BME280;68064;53.100;8.824;2023-04-06T01:38:42;102026.84;;;-0.66;67.24
78745;BME280;68064;53.100;8.824;2023-04-06T01:39:45;102029.22;;;-0.68;67.39
78745;BME280;68064;53.100;8.824;2023-04-06T01:40:46;102021.34;;;-0.71;66.94
78745;BME280;68064;53.100;8.824;2023-04-06T01:41:47;102024.56;;;-0.72;67.30
78745;BME280;68064;53.100;8.824;2023-04-06T01:42:49;102024.41;;;-0.73;67.04
78745;BME280;68064;53.100;8.824;2023-04-06T01:43:50;102026.75;;;-0.75;67.30
78745;BME280;68064;53.100;8.824;2023-04-06T01:44:51;102022.47;;;-0.76;66.97
78745;BME280;68064;53.100;8.824;2023-04-06T01:45:52;102024.81;;;-0.77;67.13
78745;BME280;68064;53.100;8.824;2023-04-06T01:46:54;102021.41;;;-0.78;66.73
78745;BME280;68064;53.100;8.824;2023-04-06T01:47:55;102021.41;;;-0.78;67.56
78745;BME280;68064;53.100;8.824;2023-04-06T01:48:56;102023.22;;;-0.77;67.37
78745;BME280;68064;53.100;8.824;2023-04-06T01:49:58;102016.38;;;-0.78;66.85
78745;BME280;68064;53.100;8.824;2023-04-06T01:50:58;102017.28;;;-0.77;67.02
78745;BME280;68064;53.100;8.824;2023-04-06T01:52:00;102022.13;;;-0.79;66.84
78745;BME280;68064;53.100;8.824;2023-04-06T01:53:03;102020.34;;;-0.80;67.47
78745;BME280;68064;53.100;8.824;2023-04-06T01:54:04;102013.69;;;-0.79;67.38
78745;BME280;68064;53.100;8.824;2023-04-06T01:55:05;102020.34;;;-0.80;67.12
78745;BME280;68064;53.100;8.824;2023-04-06T01:56:06;102016.47;;;-0.85;67.03
78745;BME280;68064;53.100;8.824;2023-04-06T01:57:07;102014.84;;;-0.84;67.23
78745;BME280;68064;53.100;8.824;2023-04-06T01:58:09;102018.06;;;-0.85;67.23
78745;BME280;68064;53.100;8.824;2023-04-06T01:59:10;102008.91;;;-0.85;67.22
78745;BME280;68064;53.100;8.824;2023-04-06T02:00:12;102005.38;;;-0.87;67.45
78745;BME280;68064;53.100;8.824;2023-04-06T02:01:14;102006.09;;;-0.88;67.67
78745;BME280;68064;53.100;8.824;2023-04-06T02:02:15;102006.97;;;-0.87;67.38
78745;BME280;68064;53.100;8.824;2023-04-06T02:03:16;102012.00;;;-0.87;67.59
78745;BME280;68064;53.100;8.824;2023-04-06T02:04:17;102005.75;;;-0.91;67.48
78745;BME280;68064;53.100;8.824;2023-04-06T02:05:19;102008.44;;;-0.89;67.16
78745;BME280;68064;53.100;8.824;2023-04-06T02:06:21;102010.06;;;-0.90;67.66
78745;BME280;68064;53.100;8.824;2023-04-06T02:07:22;102011.09;;;-0.88;67.74
78745;BME280;68064;53.100;8.824;2023-04-06T02:08:24;102004.28;;;-0.89;67.56
78745;BME280;68064;53.100;8.824;2023-04-06T02:09:26;101999.13;;;-0.90;67.16
78745;BME280;68064;53.100;8.824;2023-04-06T02:10:27;102003.97;;;-0.92;67.05
78745;BME280;68064;53.100;8.824;2023-04-06T02:11:28;101998.63;;;-0.95;67.62
78745;BME280;68064;53.100;8.824;2023-04-06T02:12:30;101994.00;;;-0.99;67.80
78745;BME280;68064;53.100;8.824;2023-04-06T02:13:31;101997.38;;;-0.98;67.22
78745;BME280;68064;53.100;8.824;2023-04-06T02:14:33;101998.13;;;-0.99;67.40
78745;BME280;68064;53.100;8.824;2023-04-06T02:15:34;101997.25;;;-1.00;67.41
78745;BME280;68064;53.100;8.824;2023-04-06T02:16:35;101998.13;;;-0.99;67.48
78745;BME280;68064;53.100;8.824;2023-04-06T02:17:37;101991.16;;;-1.02;67.57
78745;BME280;68064;53.100;8.824;2023-04-06T02:18:38;101999.75;;;-1.00;67.53
78745;BME280;68064;53.100;8.824;2023-04-06T02:19:39;101988.09;;;-0.99;67.44
78745;BME280;68064;53.100;8.824;2023-04-06T02:20:41;101990.59;;;-0.99;67.77
78745;BME280;68064;53.100;8.824;2023-04-06T02:21:41;101989.13;;;-0.97;67.19
78745;BME280;68064;53.100;8.824;2023-04-06T02:22:43;101993.25;;;-0.98;67.57
78745;BME280;68064;53.100;8.824;2023-04-06T02:23:45;101985.41;;;-1.01;67.69
78745;BME280;68064;53.100;8.824;2023-04-06T02:24:47;101985.97;;;-1.03;67.58
78745;BME280;68064;53.100;8.824;2023-04-06T02:25:48;101987.59;;;-1.04;67.94
78745;BME280;68064;53.100;8.824;2023-04-06T02:26:49;101989.78;;;-1.07;68.04
78745;BME280;68064;53.100;8.824;2023-04-06T02:27:51;101993.91;;;-1.08;67.68
78745;BME280;68064;53.100;8.824;2023-04-06T02:28:51;101998.34;;;-1.05;67.33
78745;BME280;68064;53.100;8.824;2023-04-06T02:29:53;101991.38;;;-1.08;67.77
78745;BME280;68064;53.100;8.824;2023-04-06T02:30:54;101993.75;;;-1.09;67.35
78745;BME280;68064;53.100;8.824;2023-04-06T02:31:55;101994.47;;;-1.10;67.62
78745;BME280;68064;53.100;8.824;2023-04-06T02:32:56;101997.69;;;-1.11;67.84
78745;BME280;68064;53.100;8.824;2023-04-06T02:33:58;101985.97;;;-1.19;67.91
78745;BME280;68064;53.100;8.824;2023-04-06T02:34:59;101991.97;;;-1.10;67.77
78745;BME280;68064;53.100;8.824;2023-04-06T02:36:00;101994.72;;;-1.16;68.56
78745;BME280;68064;53.100;8.824;2023-04-06T02:37:01;101993.63;;;-1.18;68.11
78745;BME280;68064;53.100;8.824;2023-04-06T02:38:02;101992.94;;;-1.17;67.76
78745;BME280;68064;53.100;8.824;2023-04-06T02:39:05;101993.09;;;-1.15;67.86
78745;BME280;68064;53.100;8.824;2023-04-06T02:40:07;101995.63;;;-1.15;68.14
78745;BME280;68064;53.100;8.824;2023-04-06T02:41:09;101990.59;;;-1.15;67.96
78745;BME280;68064;53.100;8.824;2023-04-06T02:42:10;101994.53;;;-1.17;67.57
78745;BME280;68064;53.100;8.824;2023-04-06T02:43:11;101990.09;;;-1.20;67.85
78745;BME280;68064;53.100;8.824;2023-04-06T02:44:12;101991.69;;;-1.20;67.55
78745;BME280;68064;53.100;8.824;2023-04-06T02:45:13;101986.69;;;-1.20;67.60
78745;BME280;68064;53.100;8.824;2023-04-06T02:46:15;101984.72;;;-1.23;67.58
78745;BME280;68064;53.100;8.824;2023-04-06T02:47:16;101987.25;;;-1.23;67.78
78745;BME280;68064;53.100;8.824;2023-04-06T02:48:17;101988.88;;;-1.23;67.82
78745;BME280;68064;53.100;8.824;2023-04-06T02:49:21;101986.75;;;-1.27;67.76
78745;BME280;68064;53.100;8.824;2023-04-06T02:50:22;101985.31;;;-1.25;68.03
78745;BME280;68064;53.100;8.824;2023-04-06T02:51:23;101986.91;;;-1.26;67.86
78745;BME280;68064;53.100;8.824;2023-04-06T02:52:25;101991.22;;;-1.25;67.52
78745;BME280;68064;53.100;8.824;2023-04-06T02:53:27;101990.31;;;-1.25;67.48
78745;BME280;68064;53.100;8.824;2023-04-06T02:54:29;101982.63;;;-1.27;67.78
78745;BME280;68064;53.100;8.824;2023-04-06T02:55:33;101982.47;;;-1.28;68.21
78745;BME280;68064;53.100;8.824;2023-04-06T02:56:34;101977.13;;;-1.31;67.70
78745;BME280;68064;53.100;8.824;2023-04-06T02:57:36;101980.34;;;-1.32;68.35
78745;BME280;68064;53.100;8.824;2023-04-06T02:58:37;101979.44;;;-1.33;67.87
78745;BME280;68064;53.100;8.824;2023-04-06T02:59:38;101985.38;;;-1.32;67.84
78745;BME280;68064;53.100;8.824;2023-04-06T03:00:39;101979.44;;;-1.33;67.71
78745;BME280;68064;53.100;8.824;2023-04-06T03:01:40;101976.53;;;-1.29;67.51
78745;BME280;68064;53.100;8.824;2023-04-06T03:02:41;101980.50;;;-1.31;67.65
78745;BME280;68064;53.100;8.824;2023-04-06T03:03:43;101973.53;;;-1.33;67.69
78745;BME280;68064;53.100;8.824;2023-04-06T03:04:44;101970.53;;;-1.38;68.14
78745;BME280;68064;53.100;8.824;2023-04-06T03:05:45;101975.00;;;-1.35;67.95
78745;BME280;68064;53.100;8.824;2023-04-06T03:06:46;101977.66;;;-1.34;67.99
78745;BME280;68064;53.100;8.824;2023-04-06T03:07:48;101971.75;;;-1.34;68.24
78745;BME280;68064;53.100;8.824;2023-04-06T03:08:49;101970.53;;;-1.38;68.03
78745;BME280;68064;53.100;8.824;2023-04-06T03:09:51;101974.09;;;-1.36;67.98
78745;BME280;68064;53.100;8.824;2023-04-06T03:10:52;101967.28;;;-1.37;68.28
78745;BME280;68064;53.100;8.824;2023-04-06T03:11:54;101972.16;;;-1.38;67.96
78745;BME280;68064;53.100;8.824;2023-04-06T03:12:55;101971.25;;;-1.39;68.12
78745;BME280;68064;53.100;8.824;2023-04-06T03:13:58;101974.66;;;-1.38;67.90
78745;BME280;68064;53.100;8.824;2023-04-06T03:14:59;101970.22;;;-1.41;68.02
78745;BME280;68064;53.100;8.824;2023-04-06T03:16:01;101971.97;;;-1.40;68.18
78745;BME280;68064;53.100;8.824;2023-04-06T03:17:02;101974.47;;;-1.40;68.15
78745;BME280;68064;53.100;8.824;2023-04-06T03:18:03;101971.81;;;-1.41;67.80
78745;BME280;68064;53.100;8.824;2023-04-06T03:19:04;101970.03;;;-1.42;68.46
78745;BME280;68064;53.100;8.824;2023-04-06T03:20:06;101968.56;;;-1.40;68.06
78745;BME280;68064;53.100;8.824;2023-04-06T03:21:08;101966.81;;;-1.41;67.94
78745;BME280;68064;53.100;8.824;2023-04-06T03:22:09;101964.88;;;-1.44;68.21
78745;BME280;68064;53.100;8.824;2023-04-06T03:23:11;101969.00;;;-1.44;67.94
78745;BME280;68064;53.100;8.824;2023-04-06T03:24:13;101968.25;;;-1.43;68.01
78745;BME280;68064;53.100;8.824;2023-04-06T03:25:17;101970.41;;;-1.46;68.04
78745;BME280;68064;53.100;8.824;2023-04-06T03:26:19;101965.25;;;-1.48;68.29
78745;BME280;68064;53.100;8.824;2023-04-06T03:27:20;101964.16;;;-1.50;68.21
78745;BME280;68064;53.100;8.824;2023-04-06T03:28:21;101963.63;;;-1.47;68.02
78745;BME280;68064;53.100;8.824;2023-04-06T03:29:22;101958.28;;;-1.50;68.28
78745;BME280;68064;53.100;8.824;2023-04-06T03:30:23;101964.53;;;-1.47;68.13
78745;BME280;68064;53.100;8.824;2023-04-06T03:31:25;101967.91;;;-1.46;68.30
78745;BME280;68064;53.100;8.824;2023-04-06T03:32:26;101968.09;;;-1.45;68.48
78745;BME280;68064;53.100;8.824;2023-04-06T03:33:27;101961.84;;;-1.48;67.74
78745;BME280;68064;53.100;8.824;2023-04-06T03:34:29;101965.25;;;-1.48;67.95
78745;BME280;68064;53.100;8.824;2023-04-06T03:35:30;101960.03;;;-1.49;67.91
78745;BME280;68064;53.100;8.824;2023-04-06T03:36:31;101962.41;;;-1.51;68.42
78745;BME280;68064;53.100;8.824;2023-04-06T03:37:33;101965.81;;;-1.50;68.00
78745;BME280;68064;53.100;8.824;2023-04-06T03:38:34;101960.78;;;-1.50;68.40
78745;BME280;68064;53.100;8.824;2023-04-06T03:39:35;101958.81;;;-1.53;68.29
78745;BME280;68064;53.100;8.824;2023-04-06T03:40:38;101958.81;;;-1.53;68.37
78745;BME280;68064;53.100;8.824;2023-04-06T03:41:39;101970.66;;;-1.52;67.96
78745;BME280;68064;53.100;8.824;2023-04-06T03:42:40;101960.66;;;-1.59;68.20
78745;BME280;68064;53.100;8.824;2023-04-06T03:43:44;101966.03;;;-1.56;68.05
78745;BME280;68064;53.100;8.824;2023-04-06T03:44:45;101966.19;;;-1.54;68.38
78745;BME280;68064;53.100;8.824;2023-04-06T03:45:47;101969.28;;;-1.57;68.55
78745;BME280;68064;53.100;8.824;2023-04-06T03:46:48;101973.38;;;-1.35;69.09
78745;BME280;68064;53.100;8.824;2023-04-06T03:47:50;101975.19;;;-1.18;70.09
78745;BME280;68064;53.100;8.824;2023-04-06T03:48:51;101974.56;;;-1.09;69.82
78745;BME280;68064;53.100;8.824;2023-04-06T03:49:52;101973.03;;;-0.99;69.40
78745;BME280;68064;53.100;8.824;2023-04-06T03:50:53;101968.63;;;-0.93;69.51
78745;BME280;68064;53.100;8.824;2023-04-06T03:51:56;101965.56;;;-0.91;69.32
78745;BME280;68064;53.100;8.824;2023-04-06T03:52:57;101960.69;;;-0.89;69.48
78745;BME280;68064;53.100;8.824;2023-04-06T03:53:58;101962.47;;;-0.88;69.16
78745;BME280;68064;53.100;8.824;2023-04-06T03:54:59;101962.97;;;-0.84;69.20
78745;BME280;68064;53.100;8.824;2023-04-06T03:56:02;101967.22;;;-0.83;68.65
78745;BME280;68064;53.100;8.824;2023-04-06T03:57:04;101963.09;;;-0.82;68.95
78745;BME280;68064;53.100;8.824;2023-04-06T03:58:05;101967.41;;;-0.81;69.08
78745;BME280;68064;53.100;8.824;2023-04-06T03:59:06;101964.31;;;-0.79;68.25
78745;BME280;68064;53.100;8.824;2023-04-06T04:00:08;101964.19;;;-0.80;68.51
78745;BME280;68064;53.100;8.824;2023-04-06T04:01:10;101966.13;;;-0.78;68.60
78745;BME280;68064;53.100;8.824;2023-04-06T04:02:11;101965.94;;;-0.79;68.15
78745;BME280;68064;53.100;8.824;2023-04-06T04:03:12;101970.06;;;-0.80;68.16
78745;BME280;68064;53.100;8.824;2023-04-06T04:04:13;101971.53;;;-0.82;68.25
78745;BME280;68064;53.100;8.824;2023-04-06T04:05:15;101974.22;;;-0.80;68.34
78745;BME280;68064;53.100;8.824;2023-04-06T04:06:16;101967.56;;;-0.80;68.63
78745;BME280;68064;53.100;8.824;2023-04-06T04:07:17;101968.44;;;-0.79;68.12
78745;BME280;68064;53.100;8.824;2023-04-06T04:08:18;101963.59;;;-0.78;68.35
78745;BME280;68064;53.100;8.824;2023-04-06T04:09:19;101974.38;;;-0.79;68.42
78745;BME280;68064;53.100;8.824;2023-04-06T04:10:20;101963.44;;;-0.79;68.08
78745;BME280;68064;53.100;8.824;2023-04-06T04:11:23;101963.84;;;-0.83;68.30
78745;BME280;68064;53.100;8.824;2023-04-06T04:12:24;101970.06;;;-0.80;67.96
78745;BME280;68064;53.100;8.824;2023-04-06T04:13:25;101972.59;;;-0.80;67.83
78745;BME280;68064;53.100;8.824;2023-04-06T04:14:28;101966.38;;;-0.83;68.71
78745;BME280;68064;53.100;8.824;2023-04-06T04:15:30;101974.22;;;-0.80;67.92
78745;BME280;68064;53.100;8.824;2023-04-06T04:16:31;101967.09;;;-0.84;68.17
78745;BME280;68064;53.100;8.824;2023-04-06T04:17:32;101974.06;;;-0.82;67.73
78745;BME280;68064;53.100;8.824;2023-04-06T04:18:33;101966.91;;;-0.86;68.02
78745;BME280;68064;53.100;8.824;2023-04-06T04:19:34;101972.25;;;-0.83;67.71
78745;BME280;68064;53.100;8.824;2023-04-06T04:20:36;101971.06;;;-0.86;68.38
78745;BME280;68064;53.100;8.824;2023-04-06T04:21:42;101982.16;;;-0.84;68.41
78745;BME280;68064;53.100;8.824;2023-04-06T04:22:43;101975.94;;;-0.88;68.05
78745;BME280;68064;53.100;8.824;2023-04-06T04:23:45;101977.13;;;-0.84;67.82
78745;BME280;68064;53.100;8.824;2023-04-06T04:24:46;101981.13;;;-0.86;68.31
78745;BME280;68064;53.100;8.824;2023-04-06T04:25:47;101973.41;;;-0.88;68.05
78745;BME280;68064;53.100;8.824;2023-04-06T04:26:49;101976.81;;;-0.87;67.92
78745;BME280;68064;53.100;8.824;2023-04-06T04:27:50;101973.81;;;-0.92;67.67
78745;BME280;68064;53.100;8.824;2023-04-06T04:28:52;101979.91;;;-0.90;67.70
78745;BME280;68064;53.100;8.824;2023-04-06T04:29:53;101984.94;;;-0.90;67.79
78745;BME280;68064;53.100;8.824;2023-04-06T04:30:54;101980.63;;;-0.91;67.48
78745;BME280;68064;53.100;8.824;2023-04-06T04:31:55;101979.91;;;-0.90;67.44
78745;BME280;68064;53.100;8.824;2023-04-06T04:32:56;101971.63;;;-0.89;67.74
78745;BME280;68064;53.100;8.824;2023-04-06T04:33:57;101974.88;;;-0.90;67.34
78745;BME280;68064;53.100;8.824;2023-04-06T04:34:58;101979.91;;;-0.90;67.52
78745;BME280;68064;53.100;8.824;2023-04-06T04:35:59;101976.31;;;-0.92;67.42
78745;BME280;68064;53.100;8.824;2023-04-06T04:37:03;101972.91;;;-0.92;67.80
78745;BME280;68064;53.100;8.824;2023-04-06T04:38:04;101970.97;;;-0.95;67.92
78745;BME280;68064;53.100;8.824;2023-04-06T04:39:05;101966.53;;;-0.97;67.61
78745;BME280;68064;53.100;8.824;2023-04-06T04:40:08;101976.00;;;-0.95;67.74
78745;BME280;68064;53.100;8.824;2023-04-06T04:41:09;101976.91;;;-0.94;67.92
78745;BME280;68064;53.100;8.824;2023-04-06T04:42:12;101971.88;;;-0.94;67.20
78745;BME280;68064;53.100;8.824;2023-04-06T04:43:13;101971.16;;;-0.93;67.54
78745;BME280;68064;53.100;8.824;2023-04-06T04:44:14;101976.00;;;-0.95;67.16
78745;BME280;68064;53.100;8.824;2023-04-06T04:45:15;101974.97;;;-0.97;67.21
78745;BME280;68064;53.100;8.824;2023-04-06T04:46:16;101978.19;;;-0.98;67.57
78745;BME280;68064;53.100;8.824;2023-04-06T04:47:17;101966.91;;;-1.01;67.07
78745;BME280;68064;53.100;8.824;2023-04-06T04:48:19;101977.16;;;-1.00;67.52
78745;BME280;68064;53.100;8.824;2023-04-06T04:49:20;101975.53;;;-0.99;67.75
78745;BME280;68064;53.100;8.824;2023-04-06T04:50:21;101975.34;;;-1.01;67.67
78745;BME280;68064;53.100;8.824;2023-04-06T04:51:22;101970.31;;;-1.01;67.28
78745;BME280;68064;53.100;8.824;2023-04-06T04:52:23;101967.50;;;-1.04;67.51
78745;BME280;68064;53.100;8.824;2023-04-06T04:53:24;101976.06;;;-1.02;67.91
78745;BME280;68064;53.100;8.824;2023-04-06T04:54:25;101963.75;;;-1.08;67.46
78745;BME280;68064;53.100;8.824;2023-04-06T04:55:27;101974.13;;;-1.04;67.72
78745;BME280;68064;53.100;8.824;2023-04-06T04:56:29;101974.69;;;-1.07;67.11
78745;BME280;68064;53.100;8.824;2023-04-06T04:57:32;101975.59;;;-1.07;67.82
78745;BME280;68064;53.100;8.824;2023-04-06T04:58:33;101975.59;;;-1.07;67.34
78745;BME280;68064;53.100;8.824;2023-04-06T04:59:35;101971.47;;;-1.06;67.25
78745;BME280;68064;53.100;8.824;2023-04-06T05:00:36;101975.75;;;-1.05;67.14
78745;BME280;68064;53.100;8.824;2023-04-06T05:01:37;101974.69;;;-1.07;67.42
78745;BME280;68064;53.100;8.824;2023-04-06T05:02:39;101980.63;;;-1.07;67.49
78745;BME280;68064;53.100;8.824;2023-04-06T05:03:40;101979.72;;;-1.07;67.69
78745;BME280;68064;53.100;8.824;2023-04-06T05:04:41;101964.72;;;-1.14;66.91
78745;BME280;68064;53.100;8.824;2023-04-06T05:05:42;101974.56;;;-1.09;67.26
78745;BME280;68064;53.100;8.824;2023-04-06T05:06:44;101972.19;;;-1.07;67.66
78745;BME280;68064;53.100;8.824;2023-04-06T05:07:45;101973.81;;;-1.08;67.41
78745;BME280;68064;53.100;8.824;2023-04-06T05:08:46;101973.66;;;-1.09;66.88
78745;BME280;68064;53.100;8.824;2023-04-06T05:09:47;101968.63;;;-1.09;66.98
78745;BME280;68064;53.100;8.824;2023-04-06T05:10:49;101977.78;;;-1.10;67.19
78745;BME280;68064;53.100;8.824;2023-04-06T05:11:50;101972.59;;;-1.11;67.50
78745;BME280;68064;53.100;8.824;2023-04-06T05:12:53;101967.56;;;-1.11;66.74
78745;BME280;68064;53.100;8.824;2023-04-06T05:13:56;101966.66;;;-1.12;66.77
78745;BME280;68064;53.100;8.824;2023-04-06T05:14:57;101969.16;;;-1.12;66.89
78745;BME280;68064;53.100;8.824;2023-04-06T05:15:58;101971.16;;;-1.09;66.88
78745;BME280;68064;53.100;8.824;2023-04-06T05:17:00;101969.16;;;-1.12;66.74
78745;BME280;68064;53.100;8.824;2023-04-06T05:18:01;101971.53;;;-1.13;67.57
78745;BME280;68064;53.100;8.824;2023-04-06T05:19:02;101965.63;;;-1.14;67.45
78745;BME280;68064;53.100;8.824;2023-04-06T05:20:04;101964.72;;;-1.14;67.27
78745;BME280;68064;53.100;8.824;2023-04-06T05:21:08;101970.50;;;-1.15;66.94
78745;BME280;68064;53.100;8.824;2023-04-06T05:22:09;101962.06;;;-1.16;66.87